createdAt,value
2023-03-29T00:00:13.555Z,1807.00
2023-03-29T00:01:34.779Z,1787.00
2023-03-29T00:02:14.651Z,1788.00
2023-03-29T00:05:13.576Z,1798.00
2023-03-29T00:06:13.568Z,1799.00
2023-03-29T00:07:13.544Z,1826.00
2023-03-29T00:08:13.536Z,1788.00
2023-03-29T00:09:13.540Z,1782.00
2023-03-29T00:10:13.538Z,1785.00
2023-03-29T00:11:13.516Z,1786.00
2023-03-29T00:12:13.523Z,1760.00
2023-03-29T00:13:13.511Z,1777.00
2023-03-29T00:14:13.518Z,1792.00
2023-03-29T00:15:13.536Z,1787.00
2023-03-29T00:16:13.567Z,1808.00
2023-03-29T00:17:13.579Z,1800.00
2023-03-29T00:18:13.631Z,1762.00
2023-03-29T00:19:13.670Z,1774.00
2023-03-29T00:20:13.696Z,1766.00
2023-03-29T00:21:13.705Z,1752.00
2023-03-29T00:22:13.748Z,1728.00
2023-03-29T00:23:13.764Z,1761.00
2023-03-29T00:24:13.811Z,1734.00
2023-03-29T00:25:13.841Z,1787.00
2023-03-29T00:26:13.897Z,1761.00
2023-03-29T00:27:13.954Z,1776.00
2023-03-29T00:28:14.023Z,1740.00
2023-03-29T00:29:14.081Z,1779.00
2023-03-29T00:30:14.124Z,1772.00
2023-03-29T00:31:14.252Z,1758.00
2023-03-29T00:32:14.258Z,1746.00
2023-03-29T00:33:14.289Z,1729.00
2023-03-29T00:34:14.355Z,1753.00
2023-03-29T00:35:14.413Z,1728.00
2023-03-29T00:36:14.463Z,1707.00
2023-03-29T00:37:14.520Z,1676.00
2023-03-29T00:38:14.594Z,1723.00
2023-03-29T00:39:14.699Z,1722.00
2023-03-29T00:40:14.714Z,1730.00
2023-03-29T00:41:14.761Z,1736.00
2023-03-29T00:42:14.843Z,1726.00
2023-03-29T00:43:14.862Z,1706.00
2023-03-29T00:44:14.929Z,1681.00
2023-03-29T00:45:14.980Z,1718.00
2023-03-29T00:46:15.057Z,1691.00
2023-03-29T00:47:15.072Z,1701.00
2023-03-29T00:48:15.101Z,1663.00
2023-03-29T00:49:15.116Z,1665.00
2023-03-29T00:50:15.138Z,1647.00
2023-03-29T00:51:15.198Z,1694.00
2023-03-29T00:52:15.248Z,1677.00
2023-03-29T00:53:15.319Z,1682.00
2023-03-29T00:54:15.475Z,1688.00
2023-03-29T00:55:15.423Z,1669.00
2023-03-29T00:56:15.472Z,1658.00
2023-03-29T00:57:15.507Z,1663.00
2023-03-29T00:58:15.541Z,1677.00
2023-03-29T00:59:15.554Z,1678.00
2023-03-29T01:00:15.574Z,1714.00
2023-03-29T01:01:15.601Z,1712.00
2023-03-29T01:02:15.688Z,1718.00
2023-03-29T01:03:15.738Z,1702.00
2023-03-29T01:04:15.668Z,1684.00
2023-03-29T01:05:15.694Z,1677.00
2023-03-29T01:06:15.709Z,1706.00
2023-03-29T01:07:15.762Z,1673.00
2023-03-29T01:08:15.766Z,1705.00
2023-03-29T01:09:15.766Z,1703.00
2023-03-29T01:10:15.804Z,1745.00
2023-03-29T01:11:15.886Z,1705.00
2023-03-29T01:12:15.926Z,1662.00
2023-03-29T01:13:16.046Z,1684.00
2023-03-29T01:14:16.057Z,1662.00
2023-03-29T01:15:16.096Z,1668.00
2023-03-29T01:16:16.227Z,1662.00
2023-03-29T01:17:16.228Z,1677.00
2023-03-29T01:18:16.253Z,1675.00
2023-03-29T01:19:16.300Z,1699.00
2023-03-29T01:20:16.344Z,1693.00
2023-03-29T01:21:16.369Z,1712.00
2023-03-29T01:22:16.404Z,1706.00
2023-03-29T01:23:16.415Z,1707.00
2023-03-29T01:24:16.422Z,1729.00
2023-03-29T01:25:16.452Z,1742.00
2023-03-29T01:26:16.483Z,1723.00
2023-03-29T01:27:16.530Z,1718.00
2023-03-29T01:28:16.569Z,1687.00
2023-03-29T01:29:16.665Z,1672.00
2023-03-29T01:30:16.698Z,1683.00
2023-03-29T01:31:16.782Z,1661.00
2023-03-29T01:32:16.833Z,1666.00
2023-03-29T01:33:16.877Z,1644.00
2023-03-29T01:34:16.920Z,1672.00
2023-03-29T01:35:16.997Z,1645.00
2023-03-29T01:36:17.051Z,1620.00
2023-03-29T01:37:17.088Z,1650.00
2023-03-29T01:38:17.147Z,1671.00
2023-03-29T01:39:17.189Z,1668.00
2023-03-29T01:40:17.290Z,1631.00
2023-03-29T01:41:17.311Z,1636.00
2023-03-29T01:42:17.369Z,1648.00
2023-03-29T01:43:17.447Z,1622.00
2023-03-29T01:44:17.519Z,1647.00
2023-03-29T01:45:17.555Z,1654.00
2023-03-29T01:46:17.649Z,1651.00
2023-03-29T01:47:17.657Z,1652.00
2023-03-29T01:48:17.715Z,1634.00
2023-03-29T01:49:17.782Z,1638.00
2023-03-29T01:50:17.821Z,1648.00
2023-03-29T01:51:17.838Z,1654.00
2023-03-29T01:52:17.883Z,1653.00
2023-03-29T01:53:17.896Z,1585.00
2023-03-29T01:54:17.909Z,1590.00
2023-03-29T01:55:17.953Z,1595.00
2023-03-29T01:56:17.987Z,1578.00
2023-03-29T01:57:18.074Z,1602.00
2023-03-29T01:58:18.055Z,1581.00
2023-03-29T01:59:18.067Z,1571.00
2023-03-29T02:00:18.107Z,1548.00
2023-03-29T02:01:18.152Z,1549.00
2023-03-29T02:02:18.241Z,1566.00
2023-03-29T02:03:18.326Z,1560.00
2023-03-29T02:04:18.332Z,1582.00
2023-03-29T02:05:18.365Z,1594.00
2023-03-29T02:06:18.436Z,1544.00
2023-03-29T02:07:18.458Z,1555.00
2023-03-29T02:08:18.524Z,1554.00
2023-03-29T02:09:18.589Z,1565.00
2023-03-29T02:10:18.645Z,1528.00
2023-03-29T02:11:18.687Z,1543.00
2023-03-29T02:12:18.778Z,1574.00
2023-03-29T02:13:18.809Z,1563.00
2023-03-29T02:14:18.833Z,1537.00
2023-03-29T02:15:18.882Z,1565.00
2023-03-29T02:16:19.096Z,1572.00
2023-03-29T02:17:19.014Z,1547.00
2023-03-29T02:18:19.011Z,1518.00
2023-03-29T02:19:19.103Z,1553.00
2023-03-29T02:20:20.748Z,1530.00
2023-03-29T02:21:19.166Z,1517.00
2023-03-29T02:22:19.222Z,1515.00
2023-03-29T02:23:19.291Z,1536.00
2023-03-29T02:24:19.371Z,1562.00
2023-03-29T02:25:19.409Z,1527.00
2023-03-29T02:26:19.441Z,1501.00
2023-03-29T02:27:19.498Z,1533.00
2023-03-29T02:28:19.529Z,1531.00
2023-03-29T02:29:19.540Z,1545.00
2023-03-29T02:30:19.566Z,1524.00
2023-03-29T02:31:19.659Z,1528.00
2023-03-29T02:32:19.627Z,1522.00
2023-03-29T02:33:19.650Z,1540.00
2023-03-29T02:34:19.647Z,1505.00
2023-03-29T02:35:19.682Z,1546.00
2023-03-29T02:36:19.773Z,1513.00
2023-03-29T02:37:19.767Z,1498.00
2023-03-29T02:38:19.835Z,1473.00
2023-03-29T02:39:19.880Z,1496.00
2023-03-29T02:40:19.906Z,1515.00
2023-03-29T02:41:19.947Z,1512.00
2023-03-29T02:42:20.011Z,1497.00
2023-03-29T02:43:20.070Z,1498.00
2023-03-29T02:44:20.136Z,1490.00
2023-03-29T02:45:20.206Z,1466.00
2023-03-29T02:46:20.281Z,1447.00
2023-03-29T02:47:20.246Z,1447.00
2023-03-29T02:48:20.262Z,1440.00
2023-03-29T02:49:20.289Z,1465.00
2023-03-29T02:50:20.362Z,1441.00
2023-03-29T02:51:20.493Z,1456.00
2023-03-29T02:52:20.474Z,1464.00
2023-03-29T02:53:20.525Z,1472.00
2023-03-29T02:54:20.565Z,1473.00
2023-03-29T02:55:20.633Z,1465.00
2023-03-29T02:56:20.703Z,1485.00
2023-03-29T02:57:20.783Z,1511.00
2023-03-29T02:58:20.801Z,1479.00
2023-03-29T02:59:20.882Z,1495.00
2023-03-29T03:00:20.865Z,1513.00
2023-03-29T03:01:20.950Z,1531.00
2023-03-29T03:02:20.987Z,1523.00
2023-03-29T03:03:21.064Z,1538.00
2023-03-29T03:04:20.962Z,1494.00
2023-03-29T03:05:20.989Z,1503.00
2023-03-29T03:06:21.015Z,1506.00
2023-03-29T03:07:21.084Z,1523.00
2023-03-29T03:08:21.118Z,1512.00
2023-03-29T03:09:21.168Z,1553.00
2023-03-29T03:10:21.239Z,1546.00
2023-03-29T03:11:21.295Z,1562.00
2023-03-29T03:12:21.322Z,1541.00
2023-03-29T03:13:21.350Z,1546.00
2023-03-29T03:14:21.350Z,1564.00
2023-03-29T03:15:21.357Z,1566.00
2023-03-29T03:16:21.447Z,1540.00
2023-03-29T03:17:21.442Z,1548.00
2023-03-29T03:18:21.439Z,1572.00
2023-03-29T03:19:21.467Z,1553.00
2023-03-29T03:20:22.246Z,1565.00
2023-03-29T03:21:21.534Z,1557.00
2023-03-29T03:22:21.544Z,1553.00
2023-03-29T03:23:21.533Z,1573.00
2023-03-29T03:24:21.565Z,1581.00
2023-03-29T03:25:21.580Z,1592.00
2023-03-29T03:26:21.627Z,1594.00
2023-03-29T03:27:21.619Z,1592.00
2023-03-29T03:28:21.655Z,1578.00
2023-03-29T03:29:21.664Z,1590.00
2023-03-29T03:30:21.695Z,1571.00
2023-03-29T03:31:21.794Z,1571.00
2023-03-29T03:32:21.845Z,1561.00
2023-03-29T03:33:21.883Z,1581.00
2023-03-29T03:34:21.946Z,1580.00
2023-03-29T03:35:22.002Z,1584.00
2023-03-29T03:36:22.053Z,1570.00
2023-03-29T03:37:22.103Z,1580.00
2023-03-29T03:38:22.181Z,1590.00
2023-03-29T03:39:22.202Z,1593.00
2023-03-29T03:40:22.225Z,1563.00
2023-03-29T03:41:22.248Z,1577.00
2023-03-29T03:42:22.263Z,1557.00
2023-03-29T03:43:22.288Z,1563.00
2023-03-29T03:44:22.328Z,1569.00
2023-03-29T03:45:22.332Z,1547.00
2023-03-29T03:46:22.397Z,1559.00
2023-03-29T03:47:22.466Z,1563.00
2023-03-29T03:48:22.504Z,1565.00
2023-03-29T03:49:22.539Z,1580.00
2023-03-29T03:50:22.588Z,1586.00
2023-03-29T03:51:22.617Z,1578.00
2023-03-29T03:52:22.660Z,1586.00
2023-03-29T03:53:22.674Z,1600.00
2023-03-29T03:54:22.692Z,1581.00
2023-03-29T03:55:22.718Z,1577.00
2023-03-29T03:56:22.744Z,1571.00
2023-03-29T03:57:22.805Z,1556.00
2023-03-29T03:58:22.798Z,1555.00
2023-03-29T03:59:22.846Z,1563.00
2023-03-29T04:00:22.889Z,1582.00
2023-03-29T04:01:22.930Z,1575.00
2023-03-29T04:02:23.044Z,1580.00
2023-03-29T04:03:23.194Z,1583.00
2023-03-29T04:04:23.203Z,1555.00
2023-03-29T04:05:23.179Z,1549.00
2023-03-29T04:06:23.214Z,1582.00
2023-03-29T04:07:23.336Z,1552.00
2023-03-29T04:08:23.338Z,1577.00
2023-03-29T04:09:23.397Z,1563.00
2023-03-29T04:10:23.454Z,1564.00
2023-03-29T04:11:23.478Z,1561.00
2023-03-29T04:12:23.529Z,1544.00
2023-03-29T04:13:23.576Z,1551.00
2023-03-29T04:14:23.648Z,1529.00
2023-03-29T04:15:23.690Z,1570.00
2023-03-29T04:16:23.874Z,1573.00
2023-03-29T04:17:23.924Z,1540.00
2023-03-29T04:18:23.997Z,1557.00
2023-03-29T04:19:23.922Z,1565.00
2023-03-29T04:20:23.981Z,1551.00
2023-03-29T04:21:24.025Z,1548.00
2023-03-29T04:22:24.096Z,1529.00
2023-03-29T04:23:24.146Z,1533.00
2023-03-29T04:24:24.183Z,1533.00
2023-03-29T04:25:24.223Z,1530.00
2023-03-29T04:26:24.275Z,1534.00
2023-03-29T04:27:24.348Z,1545.00
2023-03-29T04:28:24.400Z,1532.00
2023-03-29T04:29:24.419Z,1541.00
2023-03-29T04:30:24.472Z,1547.00
2023-03-29T04:31:24.525Z,1565.00
2023-03-29T04:32:24.536Z,1525.00
2023-03-29T04:33:24.554Z,1528.00
2023-03-29T04:34:24.581Z,1536.00
2023-03-29T04:35:24.587Z,1540.00
2023-03-29T04:36:24.596Z,1532.00
2023-03-29T04:37:24.634Z,1533.00
2023-03-29T04:38:24.692Z,1554.00
2023-03-29T04:39:24.741Z,1539.00
2023-03-29T04:40:24.809Z,1539.00
2023-03-29T04:41:24.830Z,1555.00
2023-03-29T04:42:24.856Z,1527.00
2023-03-29T04:43:24.894Z,1534.00
2023-03-29T04:44:24.902Z,1536.00
2023-03-29T04:45:24.969Z,1523.00
2023-03-29T04:46:25.052Z,1528.00
2023-03-29T04:47:25.099Z,1555.00
2023-03-29T04:48:25.075Z,1573.00
2023-03-29T04:49:26.164Z,1540.00
2023-03-29T04:50:25.127Z,1529.00
2023-03-29T04:51:25.155Z,1487.00
2023-03-29T04:52:25.197Z,1496.00
2023-03-29T04:53:25.227Z,1521.00
2023-03-29T04:54:25.231Z,1521.00
2023-03-29T04:55:25.277Z,1507.00
2023-03-29T04:56:25.351Z,1487.00
2023-03-29T04:57:25.409Z,1506.00
2023-03-29T04:58:30.645Z,1543.00
2023-03-29T04:59:26.394Z,1544.00
2023-03-29T05:00:25.382Z,1546.00
2023-03-29T05:01:25.412Z,1524.00
2023-03-29T05:02:25.408Z,1525.00
2023-03-29T05:03:25.378Z,1530.00
2023-03-29T05:04:25.392Z,1504.00
2023-03-29T05:05:25.365Z,1520.00
2023-03-29T05:06:25.352Z,1540.00
2023-03-29T05:07:25.326Z,1564.00
2023-03-29T05:08:25.326Z,1549.00
2023-03-29T05:09:25.339Z,1520.00
2023-03-29T05:10:25.312Z,1523.00
2023-03-29T05:11:25.394Z,1549.00
2023-03-29T05:12:25.295Z,1539.00
2023-03-29T05:13:25.316Z,1543.00
2023-03-29T05:14:25.302Z,1534.00
2023-03-29T05:15:25.287Z,1567.00
2023-03-29T05:16:25.321Z,1565.00
2023-03-29T05:17:25.336Z,1564.00
2023-03-29T05:18:25.312Z,1534.00
2023-03-29T05:19:25.343Z,1549.00
2023-03-29T05:20:25.364Z,1569.00
2023-03-29T05:21:25.400Z,1529.00
2023-03-29T05:22:25.429Z,1516.00
2023-03-29T05:23:25.437Z,1558.00
2023-03-29T05:24:25.465Z,1505.00
2023-03-29T05:25:25.826Z,1559.00
2023-03-29T05:26:25.537Z,1521.00
2023-03-29T05:27:25.564Z,1416.00
2023-03-29T05:28:25.626Z,1487.00
2023-03-29T05:29:25.618Z,1446.00
2023-03-29T05:30:25.685Z,1506.00
2023-03-29T05:31:25.752Z,1548.00
2023-03-29T05:32:25.784Z,1622.00
2023-03-29T05:33:25.770Z,1675.00
2023-03-29T05:34:25.866Z,1638.00
2023-03-29T05:35:25.894Z,1700.00
2023-03-29T05:36:25.950Z,1773.00
2023-03-29T05:37:25.961Z,1822.00
2023-03-29T05:38:26.005Z,1890.00
2023-03-29T05:39:26.004Z,1954.00
2023-03-29T05:40:26.032Z,1966.00
2023-03-29T05:41:26.020Z,1986.00
2023-03-29T05:42:26.019Z,1974.00
2023-03-29T05:43:26.041Z,2259.00
2023-03-29T05:44:26.031Z,2433.00
2023-03-29T05:45:26.072Z,2403.00
2023-03-29T05:46:26.080Z,2306.00
2023-03-29T05:47:26.199Z,2221.00
2023-03-29T05:48:26.213Z,2203.00
2023-03-29T05:49:26.237Z,2250.00
2023-03-29T05:50:26.329Z,2283.00
2023-03-29T05:51:26.349Z,2275.00
2023-03-29T05:52:26.341Z,2274.00
2023-03-29T05:53:26.426Z,2263.00
2023-03-29T05:54:26.496Z,2268.00
2023-03-29T05:55:26.551Z,2253.00
2023-03-29T05:56:26.630Z,2260.00
2023-03-29T05:57:26.683Z,2238.00
2023-03-29T05:58:26.837Z,2228.00
2023-03-29T05:59:26.760Z,2205.00
2023-03-29T06:00:26.821Z,2195.00
2023-03-29T06:01:26.784Z,2167.00
2023-03-29T06:02:26.871Z,2147.00
2023-03-29T06:03:27.015Z,2127.00
2023-03-29T06:04:27.004Z,2100.00
2023-03-29T06:05:26.939Z,2075.00
2023-03-29T06:06:26.939Z,1964.00
2023-03-29T06:07:26.959Z,2025.00
2023-03-29T06:08:26.971Z,2055.00
2023-03-29T06:09:26.980Z,2076.00
2023-03-29T06:10:27.026Z,2071.00
2023-03-29T06:11:27.033Z,2199.00
2023-03-29T06:12:27.026Z,2700.00
2023-03-29T06:13:27.041Z,2660.00
2023-03-29T06:14:27.076Z,2434.00
2023-03-29T06:15:27.095Z,2315.00
2023-03-29T06:16:27.170Z,2258.00
2023-03-29T06:17:27.120Z,2250.00
2023-03-29T06:18:27.124Z,2158.00
2023-03-29T06:19:27.142Z,2113.00
2023-03-29T06:20:27.156Z,2100.00
2023-03-29T06:21:27.199Z,2072.00
2023-03-29T06:22:27.151Z,2012.00
2023-03-29T06:23:27.165Z,2041.00
2023-03-29T06:24:27.190Z,2048.00
2023-03-29T06:25:27.161Z,2052.00
2023-03-29T06:26:27.214Z,2059.00
2023-03-29T06:27:27.258Z,2066.00
2023-03-29T06:28:27.287Z,2061.00
2023-03-29T06:29:27.352Z,2049.00
2023-03-29T06:30:27.474Z,2064.00
2023-03-29T06:31:27.509Z,1960.00
2023-03-29T06:32:27.870Z,1918.00
2023-03-29T06:33:27.576Z,1782.00
2023-03-29T06:34:27.612Z,1867.00
2023-03-29T06:35:27.673Z,1944.00
2023-03-29T06:36:27.718Z,1967.00
2023-03-29T06:37:27.804Z,2017.00
2023-03-29T06:38:27.836Z,2080.00
2023-03-29T06:39:27.893Z,2089.00
2023-03-29T06:40:27.929Z,2123.00
2023-03-29T06:41:27.961Z,2127.00
2023-03-29T06:42:27.996Z,2154.00
2023-03-29T06:43:28.044Z,2182.00
2023-03-29T06:44:28.054Z,2181.00
2023-03-29T06:45:29.338Z,2193.00
2023-03-29T06:46:28.397Z,2192.00
2023-03-29T06:47:28.390Z,2197.00
2023-03-29T06:48:28.130Z,2246.00
2023-03-29T06:49:28.162Z,2304.00
2023-03-29T06:50:28.140Z,2302.00
2023-03-29T06:51:28.181Z,2228.00
2023-03-29T06:52:28.334Z,2218.00
2023-03-29T06:53:28.200Z,2210.00
2023-03-29T06:54:28.209Z,2213.00
2023-03-29T06:55:28.233Z,2203.00
2023-03-29T06:56:28.267Z,2210.00
2023-03-29T06:57:28.385Z,2196.00
2023-03-29T06:58:28.295Z,2186.00
2023-03-29T06:59:28.286Z,2195.00
2023-03-29T07:00:28.430Z,2181.00
2023-03-29T07:01:28.411Z,2588.00
2023-03-29T07:02:28.483Z,2790.00
2023-03-29T07:03:28.490Z,2472.00
2023-03-29T07:04:28.555Z,2301.00
2023-03-29T07:05:28.612Z,2253.00
2023-03-29T07:06:28.647Z,2236.00
2023-03-29T07:07:28.895Z,2224.00
2023-03-29T07:08:28.678Z,2237.00
2023-03-29T07:09:28.643Z,2212.00
2023-03-29T07:10:28.712Z,2212.00
2023-03-29T07:11:28.736Z,2192.00
2023-03-29T07:12:28.831Z,2194.00
2023-03-29T07:13:28.811Z,2186.00
2023-03-29T07:14:28.906Z,2179.00
2023-03-29T07:15:28.920Z,2175.00
2023-03-29T07:16:29.016Z,2170.00
2023-03-29T07:17:29.397Z,2143.00
2023-03-29T07:18:29.086Z,2123.00
2023-03-29T07:19:29.152Z,2116.00
2023-03-29T07:20:29.251Z,2122.00
2023-03-29T07:21:29.275Z,2090.00
2023-03-29T07:22:29.373Z,2076.00
2023-03-29T07:23:29.376Z,2082.00
2023-03-29T07:24:29.433Z,2073.00
2023-03-29T07:25:29.490Z,2022.00
2023-03-29T07:26:30.258Z,1971.00
2023-03-29T07:27:29.869Z,1948.00
2023-03-29T07:28:29.866Z,2001.00
2023-03-29T07:29:29.634Z,2040.00
2023-03-29T07:30:31.466Z,1991.00
2023-03-29T07:31:29.629Z,1994.00
2023-03-29T07:32:29.709Z,2004.00
2023-03-29T07:33:29.957Z,2031.00
2023-03-29T07:34:29.614Z,1865.00
2023-03-29T07:35:29.616Z,1726.00
2023-03-29T07:36:29.614Z,1573.00
2023-03-29T07:37:29.848Z,1449.00
2023-03-29T07:38:29.676Z,1362.00
2023-03-29T07:39:29.786Z,2093.00
2023-03-29T07:40:29.797Z,2382.00
2023-03-29T07:41:29.830Z,2024.00
2023-03-29T07:42:29.913Z,1693.00
2023-03-29T07:43:29.943Z,1675.00
2023-03-29T07:44:29.971Z,1785.00
2023-03-29T07:45:30.062Z,1866.00
2023-03-29T07:46:30.109Z,1908.00
2023-03-29T07:47:30.199Z,1931.00
2023-03-29T07:48:30.198Z,1901.00
2023-03-29T07:49:30.370Z,1836.00
2023-03-29T07:50:30.305Z,1722.00
2023-03-29T07:51:30.345Z,1728.00
2023-03-29T07:52:30.414Z,1714.00
2023-03-29T07:53:30.480Z,1766.00
2023-03-29T07:54:30.578Z,1804.00
2023-03-29T07:55:30.602Z,1711.00
2023-03-29T07:56:30.618Z,1662.00
2023-03-29T07:57:30.687Z,1894.00
2023-03-29T07:58:30.644Z,1813.00
2023-03-29T07:59:30.896Z,2083.00
2023-03-29T08:00:30.892Z,1838.00
2023-03-29T08:01:30.777Z,1680.00
2023-03-29T08:02:30.778Z,1572.00
2023-03-29T08:03:30.852Z,1570.00
2023-03-29T08:04:30.838Z,1422.00
2023-03-29T08:05:40.748Z,1397.00
2023-03-29T08:06:31.860Z,1325.00
2023-03-29T08:07:30.859Z,1158.00
2023-03-29T08:08:30.843Z,1187.00
2023-03-29T08:09:30.828Z,1153.00
2023-03-29T08:10:30.825Z,957.00
2023-03-29T08:11:30.826Z,1026.00
2023-03-29T08:12:30.840Z,922.00
2023-03-29T08:13:30.803Z,816.00
2023-03-29T08:14:30.824Z,781.00
2023-03-29T08:15:30.896Z,848.00
2023-03-29T08:16:30.817Z,764.00
2023-03-29T08:17:30.943Z,822.00
2023-03-29T08:18:32.843Z,1017.00
2023-03-29T08:19:30.820Z,1196.00
2023-03-29T08:20:30.870Z,1289.00
2023-03-29T08:21:30.797Z,1436.00
2023-03-29T08:22:30.809Z,1496.00
2023-03-29T08:23:30.770Z,1550.00
2023-03-29T08:24:30.770Z,1565.00
2023-03-29T08:25:30.924Z,1584.00
2023-03-29T08:26:30.770Z,1689.00
2023-03-29T08:27:30.746Z,1810.00
2023-03-29T08:28:30.750Z,1841.00
2023-03-29T08:29:30.727Z,1922.00
2023-03-29T08:30:30.751Z,1958.00
2023-03-29T08:31:30.777Z,1991.00
2023-03-29T08:32:30.807Z,2026.00
2023-03-29T08:33:30.722Z,2008.00
2023-03-29T08:34:30.735Z,1996.00
2023-03-29T08:35:30.689Z,1979.00
2023-03-29T08:36:30.684Z,1834.00
2023-03-29T08:37:30.711Z,1965.00
2023-03-29T08:38:30.709Z,2007.00
2023-03-29T08:39:30.677Z,2024.00
2023-03-29T08:40:30.667Z,2040.00
2023-03-29T08:41:30.664Z,2082.00
2023-03-29T08:42:30.643Z,2095.00
2023-03-29T08:43:30.897Z,2081.00
2023-03-29T08:44:30.628Z,2069.00
2023-03-29T08:45:30.652Z,1991.00
2023-03-29T08:46:35.178Z,1940.00
2023-03-29T08:47:31.674Z,1922.00
2023-03-29T08:48:30.630Z,1845.00
2023-03-29T08:49:30.608Z,1849.00
2023-03-29T08:50:30.615Z,1868.00
2023-03-29T08:51:30.646Z,1888.00
2023-03-29T08:52:30.581Z,1945.00
2023-03-29T08:53:30.584Z,1997.00
2023-03-29T08:54:30.569Z,2015.00
2023-03-29T08:55:30.562Z,2037.00
2023-03-29T08:56:32.842Z,1999.00
2023-03-29T08:57:30.560Z,1978.00
2023-03-29T08:58:30.572Z,1917.00
2023-03-29T08:59:30.558Z,1918.00
2023-03-29T09:00:30.560Z,1845.00
2023-03-29T09:01:30.560Z,1795.00
2023-03-29T09:02:30.615Z,1845.00
2023-03-29T09:03:30.610Z,1803.00
2023-03-29T09:04:30.515Z,1807.00
2023-03-29T09:05:30.508Z,1762.00
2023-03-29T09:06:30.483Z,1706.00
2023-03-29T09:07:30.494Z,1736.00
2023-03-29T09:08:30.527Z,1753.00
2023-03-29T09:09:30.494Z,1733.00
2023-03-29T09:10:30.519Z,1644.00
2023-03-29T09:11:30.470Z,1536.00
2023-03-29T09:12:30.452Z,1564.00
2023-03-29T09:13:30.493Z,1661.00
2023-03-29T09:14:30.430Z,1647.00
2023-03-29T09:15:30.435Z,1682.00
2023-03-29T09:16:30.519Z,1775.00
2023-03-29T09:17:30.912Z,1781.00
2023-03-29T09:18:30.437Z,1773.00
2023-03-29T09:19:30.396Z,1776.00
2023-03-29T09:20:30.418Z,1761.00
2023-03-29T09:21:30.393Z,1762.00
2023-03-29T09:22:30.390Z,1746.00
2023-03-29T09:23:30.399Z,1761.00
2023-03-29T09:24:30.434Z,1759.00
2023-03-29T09:25:31.857Z,1721.00
2023-03-29T09:26:30.367Z,1634.00
2023-03-29T09:27:30.462Z,1639.00
2023-03-29T09:28:30.375Z,1477.00
2023-03-29T09:29:30.333Z,1505.00
2023-03-29T09:30:30.369Z,1419.00
2023-03-29T09:31:30.420Z,1309.00
2023-03-29T09:32:30.368Z,1398.00
2023-03-29T09:33:30.414Z,1474.00
2023-03-29T09:34:30.289Z,1572.00
2023-03-29T09:35:30.330Z,1635.00
2023-03-29T09:36:30.285Z,1667.00
2023-03-29T09:37:30.275Z,1727.00
2023-03-29T09:38:30.275Z,1769.00
2023-03-29T09:39:30.269Z,1881.00
2023-03-29T09:40:30.266Z,2271.00
2023-03-29T09:41:30.240Z,2140.00
2023-03-29T09:42:30.254Z,2066.00
2023-03-29T09:43:30.233Z,2095.00
2023-03-29T09:44:31.668Z,2201.00
2023-03-29T09:45:30.261Z,2403.00
2023-03-29T09:46:30.223Z,3171.00
2023-03-29T09:47:30.266Z,3459.00
2023-03-29T09:48:30.394Z,3119.00
2023-03-29T09:49:30.220Z,2722.00
2023-03-29T09:50:31.929Z,2519.00
2023-03-29T09:51:30.187Z,2419.00
2023-03-29T09:52:30.178Z,2410.00
2023-03-29T09:53:30.169Z,2894.00
2023-03-29T09:54:30.255Z,3159.00
2023-03-29T09:55:30.193Z,2930.00
2023-03-29T09:56:30.141Z,2718.00
2023-03-29T09:57:30.219Z,2574.00
2023-03-29T09:58:30.146Z,2480.00
2023-03-29T09:59:30.162Z,2426.00
2023-03-29T10:00:30.166Z,2343.00
2023-03-29T10:01:30.129Z,2286.00
2023-03-29T10:02:30.127Z,2237.00
2023-03-29T10:03:30.413Z,2202.00
2023-03-29T10:04:30.453Z,2184.00
2023-03-29T10:05:30.111Z,2168.00
2023-03-29T10:06:30.072Z,2157.00
2023-03-29T10:07:30.099Z,2189.00
2023-03-29T10:08:30.077Z,1954.00
2023-03-29T10:09:30.425Z,2032.00
2023-03-29T10:10:30.043Z,2021.00
2023-03-29T10:11:30.089Z,1807.00
2023-03-29T10:12:30.059Z,1617.00
2023-03-29T10:13:30.055Z,1675.00
2023-03-29T10:14:30.132Z,1466.00
2023-03-29T10:15:30.666Z,1402.00
2023-03-29T10:16:30.283Z,1460.00
2023-03-29T10:17:30.198Z,1563.00
2023-03-29T10:18:30.223Z,1457.00
2023-03-29T10:19:30.418Z,1442.00
2023-03-29T10:20:30.266Z,1471.00
2023-03-29T10:21:30.260Z,1462.00
2023-03-29T10:22:30.257Z,1439.00
2023-03-29T10:23:30.281Z,1437.00
2023-03-29T10:24:30.444Z,1434.00
2023-03-29T10:25:30.357Z,1499.00
2023-03-29T10:26:30.411Z,1508.00
2023-03-29T10:27:30.601Z,1559.00
2023-03-29T10:28:30.553Z,1444.00
2023-03-29T10:29:30.613Z,1250.00
2023-03-29T10:30:30.685Z,1349.00
2023-03-29T10:31:30.773Z,1215.00
2023-03-29T10:32:30.833Z,1327.00
2023-03-29T10:33:30.848Z,1211.00
2023-03-29T10:34:30.877Z,1293.00
2023-03-29T10:35:30.982Z,1014.00
2023-03-29T10:36:30.940Z,656.00
2023-03-29T10:37:30.997Z,561.00
2023-03-29T10:38:31.085Z,520.00
2023-03-29T10:39:31.143Z,503.00
2023-03-29T10:40:31.162Z,497.00
2023-03-29T10:41:31.119Z,535.00
2023-03-29T10:42:31.105Z,546.00
2023-03-29T10:43:31.114Z,597.00
2023-03-29T10:44:32.910Z,651.00
2023-03-29T10:45:31.114Z,784.00
2023-03-29T10:46:31.166Z,909.00
2023-03-29T10:47:31.146Z,998.00
2023-03-29T10:48:31.174Z,1138.00
2023-03-29T10:49:31.217Z,1101.00
2023-03-29T10:50:31.206Z,1125.00
2023-03-29T10:51:31.244Z,877.00
2023-03-29T10:52:31.270Z,645.00
2023-03-29T10:53:31.309Z,560.00
2023-03-29T10:54:31.365Z,518.00
2023-03-29T10:55:31.299Z,500.00
2023-03-29T10:56:31.328Z,503.00
2023-03-29T10:57:31.388Z,505.00
2023-03-29T10:58:31.429Z,501.00
2023-03-29T10:59:31.943Z,510.00
2023-03-29T11:00:31.952Z,517.00
2023-03-29T11:01:31.626Z,641.00
2023-03-29T11:02:31.663Z,655.00
2023-03-29T11:03:31.840Z,642.00
2023-03-29T11:04:31.713Z,643.00
2023-03-29T11:05:31.712Z,751.00
2023-03-29T11:06:31.728Z,716.00
2023-03-29T11:07:31.782Z,858.00
2023-03-29T11:08:32.103Z,997.00
2023-03-29T11:09:31.816Z,1047.00
2023-03-29T11:10:31.802Z,1132.00
2023-03-29T11:11:31.808Z,1177.00
2023-03-29T11:12:31.807Z,1200.00
2023-03-29T11:13:31.833Z,1251.00
2023-03-29T11:14:31.887Z,1318.00
2023-03-29T11:15:32.487Z,1320.00
2023-03-29T11:16:32.006Z,1366.00
2023-03-29T11:17:32.078Z,1394.00
2023-03-29T11:18:32.100Z,1432.00
2023-03-29T11:19:32.115Z,1463.00
2023-03-29T11:20:32.134Z,1358.00
2023-03-29T11:21:32.180Z,1479.00
2023-03-29T11:22:32.143Z,1280.00
2023-03-29T11:23:32.177Z,1286.00
2023-03-29T11:24:32.157Z,1405.00
2023-03-29T11:25:32.182Z,1400.00
2023-03-29T11:26:32.157Z,1460.00
2023-03-29T11:27:32.162Z,1588.00
2023-03-29T11:28:32.190Z,1566.00
2023-03-29T11:29:32.179Z,1563.00
2023-03-29T11:30:32.225Z,1615.00
2023-03-29T11:31:32.379Z,1633.00
2023-03-29T11:32:32.314Z,1607.00
2023-03-29T11:33:32.350Z,1571.00
2023-03-29T11:34:32.396Z,1570.00
2023-03-29T11:35:32.464Z,1596.00
2023-03-29T11:36:32.473Z,1611.00
2023-03-29T11:37:32.543Z,1620.00
2023-03-29T11:38:32.604Z,1622.00
2023-03-29T11:39:32.667Z,1652.00
2023-03-29T11:40:32.738Z,1648.00
2023-03-29T11:41:32.802Z,1663.00
2023-03-29T11:42:32.844Z,1650.00
2023-03-29T11:43:32.903Z,1645.00
2023-03-29T11:44:32.950Z,1666.00
2023-03-29T11:45:33.481Z,1669.00
2023-03-29T11:46:33.122Z,1674.00
2023-03-29T11:47:33.137Z,1687.00
2023-03-29T11:48:33.154Z,1685.00
2023-03-29T11:49:33.182Z,1697.00
2023-03-29T11:50:36.022Z,1690.00
2023-03-29T11:51:33.192Z,1701.00
2023-03-29T11:52:33.222Z,1704.00
2023-03-29T11:53:33.185Z,1698.00
2023-03-29T11:54:33.196Z,1683.00
2023-03-29T11:55:33.464Z,1687.00
2023-03-29T11:56:33.171Z,1674.00
2023-03-29T11:57:33.466Z,1676.00
2023-03-29T11:58:33.216Z,1683.00
2023-03-29T11:59:33.170Z,1674.00
2023-03-29T12:00:33.152Z,1680.00
2023-03-29T12:01:33.138Z,1661.00
2023-03-29T12:02:33.540Z,1646.00
2023-03-29T12:03:33.154Z,1630.00
2023-03-29T12:04:33.152Z,1642.00
2023-03-29T12:05:33.120Z,1634.00
2023-03-29T12:06:33.110Z,1637.00
2023-03-29T12:07:33.128Z,1629.00
2023-03-29T12:08:33.108Z,1627.00